sensor_id;sensor_type;location;lat;lon;timestamp;P1;durP1;ratioP1;P2;durP2;ratioP2
7487;SDS011;3785;52.260;4.728;2023-02-15T00:00:27;35.40;;;19.73;;
7487;SDS011;3785;52.260;4.728;2023-02-15T00:03:48;36.73;;;17.87;;
7487;SDS011;3785;52.260;4.728;2023-02-15T00:07:09;33.67;;;18.67;;
7487;SDS011;3785;52.260;4.728;2023-02-15T00:10:29;39.30;;;20.10;;
7487;SDS011;3785;52.260;4.728;2023-02-15T00:13:50;36.40;;;18.13;;
7487;SDS011;3785;52.260;4.728;2023-02-15T00:17:11;38.97;;;19.83;;
7487;SDS011;3785;52.260;4.728;2023-02-15T00:20:31;35.17;;;19.43;;
7487;SDS011;3785;52.260;4.728;2023-02-15T00:23:52;42.83;;;19.33;;
7487;SDS011;3785;52.260;4.728;2023-02-15T00:27:12;42.73;;;20.20;;
7487;SDS011;3785;52.260;4.728;2023-02-15T00:30:33;37.77;;;19.83;;
7487;SDS011;3785;52.260;4.728;2023-02-15T00:33:53;40.57;;;19.67;;
7487;SDS011;3785;52.260;4.728;2023-02-15T00:37:14;35.33;;;18.63;;
7487;SDS011;3785;52.260;4.728;2023-02-15T00:40:35;35.87;;;19.40;;
7487;SDS011;3785;52.260;4.728;2023-02-15T00:43:55;36.73;;;19.00;;
7487;SDS011;3785;52.260;4.728;2023-02-15T00:47:16;36.93;;;20.17;;
7487;SDS011;3785;52.260;4.728;2023-02-15T00:50:36;33.13;;;18.50;;
7487;SDS011;3785;52.260;4.728;2023-02-15T00:53:57;40.37;;;19.97;;
7487;SDS011;3785;52.260;4.728;2023-02-15T00:57:18;40.37;;;20.83;;
7487;SDS011;3785;52.260;4.728;2023-02-15T01:00:38;38.80;;;20.50;;
7487;SDS011;3785;52.260;4.728;2023-02-15T01:04:01;37.70;;;19.40;;
7487;SDS011;3785;52.260;4.728;2023-02-15T01:07:21;37.93;;;19.27;;
7487;SDS011;3785;52.260;4.728;2023-02-15T01:10:42;39.20;;;18.80;;
7487;SDS011;3785;52.260;4.728;2023-02-15T01:14:04;38.50;;;19.10;;
7487;SDS011;3785;52.260;4.728;2023-02-15T01:17:25;37.77;;;18.17;;
7487;SDS011;3785;52.260;4.728;2023-02-15T01:20:45;34.70;;;18.20;;
7487;SDS011;3785;52.260;4.728;2023-02-15T01:24:11;37.10;;;18.73;;
7487;SDS011;3785;52.260;4.728;2023-02-15T01:27:32;37.93;;;18.73;;
7487;SDS011;3785;52.260;4.728;2023-02-15T01:30:53;29.33;;;16.63;;
7487;SDS011;3785;52.260;4.728;2023-02-15T01:34:13;30.93;;;17.53;;
7487;SDS011;3785;52.260;4.728;2023-02-15T01:37:34;36.97;;;17.70;;
7487;SDS011;3785;52.260;4.728;2023-02-15T01:40:55;34.30;;;18.33;;
7487;SDS011;3785;52.260;4.728;2023-02-15T01:44:54;29.33;;;16.97;;
7487;SDS011;3785;52.260;4.728;2023-02-15T01:51:41;33.53;;;16.43;;
7487;SDS011;3785;52.260;4.728;2023-02-15T01:55:02;29.33;;;17.37;;
7487;SDS011;3785;52.260;4.728;2023-02-15T01:58:25;29.00;;;16.83;;
7487;SDS011;3785;52.260;4.728;2023-02-15T02:01:46;29.53;;;16.57;;
7487;SDS011;3785;52.260;4.728;2023-02-15T02:05:07;28.67;;;16.17;;
7487;SDS011;3785;52.260;4.728;2023-02-15T02:08:27;27.87;;;15.50;;
7487;SDS011;3785;52.260;4.728;2023-02-15T02:11:48;31.80;;;15.97;;
7487;SDS011;3785;52.260;4.728;2023-02-15T02:15:09;27.90;;;15.43;;
7487;SDS011;3785;52.260;4.728;2023-02-15T02:22:08;26.43;;;15.43;;
7487;SDS011;3785;52.260;4.728;2023-02-15T02:26:01;31.37;;;15.20;;
7487;SDS011;3785;52.260;4.728;2023-02-15T02:36:40;30.70;;;15.97;;
7487;SDS011;3785;52.260;4.728;2023-02-15T02:44:16;26.97;;;14.53;;
7487;SDS011;3785;52.260;4.728;2023-02-15T02:47:43;27.37;;;14.97;;
7487;SDS011;3785;52.260;4.728;2023-02-15T02:51:10;27.97;;;15.23;;
7487;SDS011;3785;52.260;4.728;2023-02-15T02:54:30;29.80;;;14.43;;
7487;SDS011;3785;52.260;4.728;2023-02-15T02:57:54;26.93;;;14.67;;
7487;SDS011;3785;52.260;4.728;2023-02-15T03:01:16;23.63;;;13.10;;
7487;SDS011;3785;52.260;4.728;2023-02-15T03:04:41;31.23;;;15.80;;
7487;SDS011;3785;52.260;4.728;2023-02-15T03:08:05;27.77;;;14.03;;
7487;SDS011;3785;52.260;4.728;2023-02-15T03:11:29;26.57;;;14.93;;
7487;SDS011;3785;52.260;4.728;2023-02-15T03:14:51;30.57;;;14.83;;
7487;SDS011;3785;52.260;4.728;2023-02-15T03:18:16;26.97;;;14.67;;
7487;SDS011;3785;52.260;4.728;2023-02-15T03:21:45;23.73;;;13.20;;
7487;SDS011;3785;52.260;4.728;2023-02-15T03:25:39;29.47;;;14.70;;
7487;SDS011;3785;52.260;4.728;2023-02-15T03:28:59;27.97;;;14.50;;
7487;SDS011;3785;52.260;4.728;2023-02-15T03:32:23;30.07;;;14.93;;
7487;SDS011;3785;52.260;4.728;2023-02-15T03:35:49;29.30;;;15.47;;
7487;SDS011;3785;52.260;4.728;2023-02-15T03:39:16;31.33;;;15.20;;
7487;SDS011;3785;52.260;4.728;2023-02-15T03:42:38;27.47;;;14.47;;
7487;SDS011;3785;52.260;4.728;2023-02-15T03:53:15;26.27;;;14.37;;
7487;SDS011;3785;52.260;4.728;2023-02-15T03:56:40;26.17;;;14.87;;
7487;SDS011;3785;52.260;4.728;2023-02-15T04:00:03;30.57;;;14.87;;
7487;SDS011;3785;52.260;4.728;2023-02-15T04:03:57;21.67;;;13.10;;
7487;SDS011;3785;52.260;4.728;2023-02-15T04:07:21;27.53;;;14.57;;
7487;SDS011;3785;52.260;4.728;2023-02-15T04:10:41;29.87;;;13.60;;
7487;SDS011;3785;52.260;4.728;2023-02-15T04:14:15;28.87;;;13.77;;
7487;SDS011;3785;52.260;4.728;2023-02-15T04:17:54;26.17;;;13.20;;
7487;SDS011;3785;52.260;4.728;2023-02-15T04:21:15;24.13;;;13.50;;
7487;SDS011;3785;52.260;4.728;2023-02-15T04:24:54;23.97;;;13.50;;
7487;SDS011;3785;52.260;4.728;2023-02-15T04:28:33;27.63;;;13.77;;
7487;SDS011;3785;52.260;4.728;2023-02-15T04:31:54;25.43;;;13.57;;
7487;SDS011;3785;52.260;4.728;2023-02-15T04:35:16;23.93;;;13.13;;
7487;SDS011;3785;52.260;4.728;2023-02-15T04:38:37;26.23;;;14.13;;
7487;SDS011;3785;52.260;4.728;2023-02-15T04:41:57;24.33;;;14.27;;
7487;SDS011;3785;52.260;4.728;2023-02-15T04:45:18;26.23;;;13.40;;
7487;SDS011;3785;52.260;4.728;2023-02-15T04:48:38;27.70;;;14.13;;
7487;SDS011;3785;52.260;4.728;2023-02-15T04:51:59;27.40;;;13.37;;
7487;SDS011;3785;52.260;4.728;2023-02-15T04:55:20;28.47;;;15.23;;
7487;SDS011;3785;52.260;4.728;2023-02-15T04:58:41;26.33;;;13.63;;
7487;SDS011;3785;52.260;4.728;2023-02-15T05:02:01;23.17;;;13.00;;
7487;SDS011;3785;52.260;4.728;2023-02-15T05:05:22;26.45;;;13.18;;
7487;SDS011;3785;52.260;4.728;2023-02-15T05:08:43;26.08;;;13.30;;
7487;SDS011;3785;52.260;4.728;2023-02-15T05:12:03;28.00;;;13.30;;
7487;SDS011;3785;52.260;4.728;2023-02-15T05:15:24;23.40;;;12.70;;
7487;SDS011;3785;52.260;4.728;2023-02-15T05:18:44;28.10;;;13.63;;
7487;SDS011;3785;52.260;4.728;2023-02-15T05:22:05;21.53;;;12.67;;
7487;SDS011;3785;52.260;4.728;2023-02-15T05:25:25;24.37;;;13.20;;
7487;SDS011;3785;52.260;4.728;2023-02-15T05:29:04;23.95;;;12.88;;
7487;SDS011;3785;52.260;4.728;2023-02-15T05:32:25;26.65;;;13.00;;
7487;SDS011;3785;52.260;4.728;2023-02-15T05:35:46;24.97;;;13.53;;
7487;SDS011;3785;52.260;4.728;2023-02-15T05:39:07;30.08;;;13.88;;
7487;SDS011;3785;52.260;4.728;2023-02-15T05:42:28;24.97;;;12.87;;
7487;SDS011;3785;52.260;4.728;2023-02-15T05:45:49;29.50;;;13.37;;
7487;SDS011;3785;52.260;4.728;2023-02-15T05:49:11;24.57;;;13.20;;
7487;SDS011;3785;52.260;4.728;2023-02-15T05:52:32;23.47;;;13.23;;
7487;SDS011;3785;52.260;4.728;2023-02-15T05:55:52;25.40;;;13.30;;
7487;SDS011;3785;52.260;4.728;2023-02-15T05:59:13;24.63;;;12.37;;
7487;SDS011;3785;52.260;4.728;2023-02-15T06:02:34;25.67;;;12.73;;
7487;SDS011;3785;52.260;4.728;2023-02-15T06:05:55;25.07;;;13.77;;
7487;SDS011;3785;52.260;4.728;2023-02-15T06:09:16;24.67;;;13.90;;
7487;SDS011;3785;52.260;4.728;2023-02-15T06:12:38;23.73;;;12.97;;
7487;SDS011;3785;52.260;4.728;2023-02-15T06:15:58;26.07;;;12.80;;
7487;SDS011;3785;52.260;4.728;2023-02-15T06:19:19;28.73;;;12.97;;
7487;SDS011;3785;52.260;4.728;2023-02-15T06:22:40;30.00;;;13.87;;
7487;SDS011;3785;52.260;4.728;2023-02-15T06:26:01;21.40;;;12.00;;
7487;SDS011;3785;52.260;4.728;2023-02-15T06:29:21;21.23;;;11.53;;
7487;SDS011;3785;52.260;4.728;2023-02-15T06:32:42;22.87;;;11.43;;
7487;SDS011;3785;52.260;4.728;2023-02-15T06:36:03;23.93;;;13.00;;
7487;SDS011;3785;52.260;4.728;2023-02-15T06:39:23;23.37;;;12.80;;
7487;SDS011;3785;52.260;4.728;2023-02-15T06:42:44;22.70;;;11.93;;
7487;SDS011;3785;52.260;4.728;2023-02-15T06:46:05;22.90;;;13.20;;
7487;SDS011;3785;52.260;4.728;2023-02-15T06:49:25;24.30;;;13.03;;
7487;SDS011;3785;52.260;4.728;2023-02-15T06:52:46;25.20;;;12.10;;
7487;SDS011;3785;52.260;4.728;2023-02-15T06:56:06;23.90;;;13.47;;
7487;SDS011;3785;52.260;4.728;2023-02-15T06:59:28;21.40;;;11.67;;
7487;SDS011;3785;52.260;4.728;2023-02-15T07:02:53;22.57;;;12.20;;
7487;SDS011;3785;52.260;4.728;2023-02-15T07:06:17;24.73;;;13.20;;
7487;SDS011;3785;52.260;4.728;2023-02-15T07:09:38;25.58;;;12.23;;
7487;SDS011;3785;52.260;4.728;2023-02-15T07:12:59;22.20;;;13.00;;
7487;SDS011;3785;52.260;4.728;2023-02-15T07:16:19;23.00;;;12.27;;
7487;SDS011;3785;52.260;4.728;2023-02-15T07:19:40;25.40;;;13.20;;
7487;SDS011;3785;52.260;4.728;2023-02-15T07:23:01;19.53;;;12.43;;
7487;SDS011;3785;52.260;4.728;2023-02-15T07:26:21;24.13;;;13.17;;
7487;SDS011;3785;52.260;4.728;2023-02-15T07:29:42;22.73;;;12.33;;
7487;SDS011;3785;52.260;4.728;2023-02-15T07:33:03;25.42;;;13.95;;
7487;SDS011;3785;52.260;4.728;2023-02-15T07:36:42;27.37;;;13.83;;
7487;SDS011;3785;52.260;4.728;2023-02-15T07:40:04;23.70;;;13.87;;
7487;SDS011;3785;52.260;4.728;2023-02-15T07:43:25;28.97;;;12.93;;
7487;SDS011;3785;52.260;4.728;2023-02-15T07:46:46;26.05;;;13.23;;
7487;SDS011;3785;52.260;4.728;2023-02-15T07:50:07;27.23;;;13.82;;
7487;SDS011;3785;52.260;4.728;2023-02-15T07:53:28;26.90;;;13.63;;
7487;SDS011;3785;52.260;4.728;2023-02-15T07:56:48;28.08;;;14.32;;
7487;SDS011;3785;52.260;4.728;2023-02-15T08:00:09;26.65;;;13.55;;
7487;SDS011;3785;52.260;4.728;2023-02-15T08:03:31;30.75;;;13.60;;
7487;SDS011;3785;52.260;4.728;2023-02-15T08:06:52;24.08;;;13.95;;
7487;SDS011;3785;52.260;4.728;2023-02-15T08:10:14;24.30;;;13.50;;
7487;SDS011;3785;52.260;4.728;2023-02-15T08:13:56;28.05;;;13.68;;
7487;SDS011;3785;52.260;4.728;2023-02-15T08:17:19;24.30;;;13.77;;
7487;SDS011;3785;52.260;4.728;2023-02-15T08:20:39;26.38;;;14.18;;
7487;SDS011;3785;52.260;4.728;2023-02-15T08:24:00;28.90;;;14.50;;
7487;SDS011;3785;52.260;4.728;2023-02-15T08:27:21;28.17;;;14.88;;
7487;SDS011;3785;52.260;4.728;2023-02-15T08:30:46;24.50;;;14.15;;
7487;SDS011;3785;52.260;4.728;2023-02-15T08:34:07;28.30;;;14.23;;
7487;SDS011;3785;52.260;4.728;2023-02-15T08:37:29;27.83;;;14.80;;
7487;SDS011;3785;52.260;4.728;2023-02-15T08:40:50;28.40;;;14.07;;
7487;SDS011;3785;52.260;4.728;2023-02-15T08:44:10;23.27;;;14.82;;
7487;SDS011;3785;52.260;4.728;2023-02-15T08:47:31;28.83;;;14.85;;
7487;SDS011;3785;52.260;4.728;2023-02-15T08:50:52;25.42;;;14.75;;
7487;SDS011;3785;52.260;4.728;2023-02-15T08:54:13;26.02;;;14.63;;
7487;SDS011;3785;52.260;4.728;2023-02-15T08:57:35;28.33;;;14.88;;
7487;SDS011;3785;52.260;4.728;2023-02-15T09:00:57;28.75;;;15.27;;
7487;SDS011;3785;52.260;4.728;2023-02-15T09:04:18;30.42;;;15.05;;
7487;SDS011;3785;52.260;4.728;2023-02-15T09:07:39;29.90;;;16.05;;
7487;SDS011;3785;52.260;4.728;2023-02-15T09:11:11;31.85;;;16.45;;
7487;SDS011;3785;52.260;4.728;2023-02-15T09:14:32;27.92;;;15.98;;
7487;SDS011;3785;52.260;4.728;2023-02-15T09:17:53;28.60;;;15.82;;
7487;SDS011;3785;52.260;4.728;2023-02-15T09:21:15;34.78;;;17.05;;
7487;SDS011;3785;52.260;4.728;2023-02-15T09:24:37;37.03;;;18.80;;
7487;SDS011;3785;52.260;4.728;2023-02-15T09:27:58;31.45;;;15.88;;
7487;SDS011;3785;52.260;4.728;2023-02-15T09:31:19;30.40;;;16.55;;
7487;SDS011;3785;52.260;4.728;2023-02-15T09:34:41;28.05;;;17.33;;
7487;SDS011;3785;52.260;4.728;2023-02-15T09:38:01;30.02;;;16.83;;
7487;SDS011;3785;52.260;4.728;2023-02-15T09:48:44;30.83;;;16.48;;
7487;SDS011;3785;52.260;4.728;2023-02-15T09:59:28;33.97;;;17.90;;
7487;SDS011;3785;52.260;4.728;2023-02-15T10:10:39;35.47;;;18.38;;
7487;SDS011;3785;52.260;4.728;2023-02-15T10:14:14;37.15;;;19.77;;
7487;SDS011;3785;52.260;4.728;2023-02-15T10:18:11;42.45;;;21.35;;
7487;SDS011;3785;52.260;4.728;2023-02-15T10:25:23;35.20;;;20.15;;
7487;SDS011;3785;52.260;4.728;2023-02-15T10:32:24;38.47;;;20.73;;
7487;SDS011;3785;52.260;4.728;2023-02-15T10:47:17;45.38;;;21.02;;
7487;SDS011;3785;52.260;4.728;2023-02-15T10:50:48;40.70;;;20.80;;
7487;SDS011;3785;52.260;4.728;2023-02-15T10:54:21;36.10;;;20.63;;
7487;SDS011;3785;52.260;4.728;2023-02-15T11:05:05;34.42;;;20.45;;
7487;SDS011;3785;52.260;4.728;2023-02-15T11:09:02;43.95;;;22.20;;
7487;SDS011;3785;52.260;4.728;2023-02-15T11:12:24;42.85;;;22.55;;
7487;SDS011;3785;52.260;4.728;2023-02-15T11:15:55;45.15;;;22.13;;
7487;SDS011;3785;52.260;4.728;2023-02-15T11:19:26;45.30;;;21.27;;
7487;SDS011;3785;52.260;4.728;2023-02-15T11:22:50;51.10;;;23.70;;
7487;SDS011;3785;52.260;4.728;2023-02-15T11:26:34;45.20;;;23.35;;
7487;SDS011;3785;52.260;4.728;2023-02-15T11:29:57;47.25;;;23.70;;
7487;SDS011;3785;52.260;4.728;2023-02-15T11:33:30;43.17;;;23.77;;
7487;SDS011;3785;52.260;4.728;2023-02-15T11:36:55;47.25;;;23.52;;
7487;SDS011;3785;52.260;4.728;2023-02-15T11:40:28;45.50;;;24.48;;
7487;SDS011;3785;52.260;4.728;2023-02-15T11:47:32;48.03;;;23.73;;
7487;SDS011;3785;52.260;4.728;2023-02-15T11:50:53;46.10;;;24.60;;
7487;SDS011;3785;52.260;4.728;2023-02-15T11:54:14;49.15;;;25.67;;
7487;SDS011;3785;52.260;4.728;2023-02-15T11:57:39;50.75;;;25.95;;
7487;SDS011;3785;52.260;4.728;2023-02-15T12:04:36;53.30;;;26.88;;
7487;SDS011;3785;52.260;4.728;2023-02-15T12:08:03;47.78;;;24.98;;
7487;SDS011;3785;52.260;4.728;2023-02-15T12:11:36;46.72;;;25.83;;
7487;SDS011;3785;52.260;4.728;2023-02-15T12:14:59;47.97;;;25.67;;
7487;SDS011;3785;52.260;4.728;2023-02-15T12:18:33;48.25;;;24.90;;
7487;SDS011;3785;52.260;4.728;2023-02-15T12:22:01;45.00;;;24.65;;
7487;SDS011;3785;52.260;4.728;2023-02-15T12:25:30;50.80;;;25.48;;
7487;SDS011;3785;52.260;4.728;2023-02-15T12:28:53;44.63;;;26.02;;
7487;SDS011;3785;52.260;4.728;2023-02-15T12:32:18;46.47;;;25.40;;
7487;SDS011;3785;52.260;4.728;2023-02-15T12:35:42;44.22;;;25.13;;
7487;SDS011;3785;52.260;4.728;2023-02-15T12:42:43;45.58;;;24.10;;
7487;SDS011;3785;52.260;4.728;2023-02-15T12:46:21;40.60;;;23.52;;
7487;SDS011;3785;52.260;4.728;2023-02-15T12:49:43;40.58;;;22.27;;
7487;SDS011;3785;52.260;4.728;2023-02-15T12:56:40;47.97;;;20.83;;
7487;SDS011;3785;52.260;4.728;2023-02-15T13:03:54;33.78;;;19.48;;
7487;SDS011;3785;52.260;4.728;2023-02-15T13:07:17;35.33;;;20.58;;
7487;SDS011;3785;52.260;4.728;2023-02-15T13:10:42;30.98;;;18.98;;
7487;SDS011;3785;52.260;4.728;2023-02-15T13:14:20;34.00;;;18.92;;
7487;SDS011;3785;52.260;4.728;2023-02-15T13:17:46;30.17;;;18.27;;
7487;SDS011;3785;52.260;4.728;2023-02-15T13:21:15;30.25;;;17.65;;
7487;SDS011;3785;52.260;4.728;2023-02-15T13:28:19;29.45;;;17.98;;
7487;SDS011;3785;52.260;4.728;2023-02-15T13:31:40;27.25;;;16.20;;
7487;SDS011;3785;52.260;4.728;2023-02-15T13:35:01;31.27;;;18.23;;
7487;SDS011;3785;52.260;4.728;2023-02-15T13:41:58;30.30;;;17.55;;
7487;SDS011;3785;52.260;4.728;2023-02-15T13:49:00;28.60;;;16.05;;
7487;SDS011;3785;52.260;4.728;2023-02-15T13:52:27;27.17;;;16.88;;
7487;SDS011;3785;52.260;4.728;2023-02-15T13:55:57;32.13;;;17.48;;
7487;SDS011;3785;52.260;4.728;2023-02-15T14:21:57;27.15;;;16.25;;
7487;SDS011;3785;52.260;4.728;2023-02-15T14:28:54;27.00;;;15.77;;
7487;SDS011;3785;52.260;4.728;2023-02-15T14:32:39;26.27;;;15.10;;
7487;SDS011;3785;52.260;4.728;2023-02-15T14:36:03;30.55;;;16.05;;
7487;SDS011;3785;52.260;4.728;2023-02-15T14:53:57;29.55;;;14.75;;
7487;SDS011;3785;52.260;4.728;2023-02-15T15:00:38;23.20;;;14.25;;
7487;SDS011;3785;52.260;4.728;2023-02-15T15:04:01;22.52;;;14.23;;
7487;SDS011;3785;52.260;4.728;2023-02-15T15:07:25;25.48;;;14.57;;
7487;SDS011;3785;52.260;4.728;2023-02-15T15:10:46;21.73;;;13.80;;
7487;SDS011;3785;52.260;4.728;2023-02-15T15:14:07;24.15;;;14.57;;
7487;SDS011;3785;52.260;4.728;2023-02-15T15:20:52;27.05;;;13.93;;
7487;SDS011;3785;52.260;4.728;2023-02-15T15:28:02;28.10;;;15.23;;
7487;SDS011;3785;52.260;4.728;2023-02-15T15:31:57;25.55;;;14.75;;
7487;SDS011;3785;52.260;4.728;2023-02-15T15:35:23;27.05;;;15.23;;
7487;SDS011;3785;52.260;4.728;2023-02-15T15:49:55;23.23;;;13.93;;
7487;SDS011;3785;52.260;4.728;2023-02-15T15:53:20;25.35;;;14.52;;
7487;SDS011;3785;52.260;4.728;2023-02-15T15:56:44;25.15;;;14.35;;
7487;SDS011;3785;52.260;4.728;2023-02-15T16:00:25;23.38;;;15.68;;
7487;SDS011;3785;52.260;4.728;2023-02-15T16:03:54;23.27;;;13.57;;
7487;SDS011;3785;52.260;4.728;2023-02-15T16:10:36;24.02;;;13.50;;
7487;SDS011;3785;52.260;4.728;2023-02-15T16:13:57;23.23;;;14.05;;
7487;SDS011;3785;52.260;4.728;2023-02-15T16:17:28;26.35;;;13.70;;
7487;SDS011;3785;52.260;4.728;2023-02-15T16:20:58;25.10;;;14.32;;
7487;SDS011;3785;52.260;4.728;2023-02-15T16:28:12;25.30;;;14.38;;
7487;SDS011;3785;52.260;4.728;2023-02-15T16:31:32;21.98;;;14.10;;
7487;SDS011;3785;52.260;4.728;2023-02-15T16:34:57;23.50;;;13.75;;
7487;SDS011;3785;52.260;4.728;2023-02-15T16:42:04;23.88;;;13.82;;
7487;SDS011;3785;52.260;4.728;2023-02-15T16:45:25;25.90;;;14.48;;
7487;SDS011;3785;52.260;4.728;2023-02-15T16:48:49;27.25;;;14.85;;
7487;SDS011;3785;52.260;4.728;2023-02-15T16:52:15;25.73;;;14.65;;
7487;SDS011;3785;52.260;4.728;2023-02-15T16:55:41;27.55;;;15.15;;
7487;SDS011;3785;52.260;4.728;2023-02-15T16:59:02;24.33;;;14.63;;
7487;SDS011;3785;52.260;4.728;2023-02-15T17:02:24;30.23;;;14.73;;
7487;SDS011;3785;52.260;4.728;2023-02-15T17:05:50;26.88;;;15.75;;
7487;SDS011;3785;52.260;4.728;2023-02-15T17:09:34;27.50;;;15.50;;
7487;SDS011;3785;52.260;4.728;2023-02-15T17:12:55;31.85;;;17.20;;
7487;SDS011;3785;52.260;4.728;2023-02-15T17:16:23;30.02;;;15.98;;
7487;SDS011;3785;52.260;4.728;2023-02-15T17:19:49;27.60;;;16.73;;
7487;SDS011;3785;52.260;4.728;2023-02-15T17:23:19;29.67;;;16.17;;
7487;SDS011;3785;52.260;4.728;2023-02-15T17:26:55;27.58;;;16.50;;
7487;SDS011;3785;52.260;4.728;2023-02-15T17:30:33;30.38;;;17.48;;
7487;SDS011;3785;52.260;4.728;2023-02-15T17:33:54;31.30;;;18.08;;
7487;SDS011;3785;52.260;4.728;2023-02-15T17:38:02;32.83;;;17.38;;
7487;SDS011;3785;52.260;4.728;2023-02-15T17:40:57;33.55;;;18.92;;
7487;SDS011;3785;52.260;4.728;2023-02-15T17:44:18;29.20;;;17.23;;
7487;SDS011;3785;52.260;4.728;2023-02-15T17:47:38;30.00;;;17.27;;
7487;SDS011;3785;52.260;4.728;2023-02-15T17:51:00;36.38;;;18.77;;
7487;SDS011;3785;52.260;4.728;2023-02-15T17:54:21;33.92;;;17.25;;
7487;SDS011;3785;52.260;4.728;2023-02-15T17:58:02;32.03;;;17.58;;
7487;SDS011;3785;52.260;4.728;2023-02-15T18:01:23;33.88;;;17.52;;
7487;SDS011;3785;52.260;4.728;2023-02-15T18:05:02;35.58;;;19.73;;
7487;SDS011;3785;52.260;4.728;2023-02-15T18:08:41;32.90;;;17.65;;
7487;SDS011;3785;52.260;4.728;2023-02-15T18:15:43;32.33;;;18.08;;
7487;SDS011;3785;52.260;4.728;2023-02-15T18:19:04;33.65;;;18.08;;
7487;SDS011;3785;52.260;4.728;2023-02-15T18:22:25;33.58;;;18.48;;
7487;SDS011;3785;52.260;4.728;2023-02-15T18:25:47;32.63;;;18.45;;
7487;SDS011;3785;52.260;4.728;2023-02-15T18:29:07;31.02;;;18.23;;
7487;SDS011;3785;52.260;4.728;2023-02-15T18:32:30;33.10;;;18.15;;
7487;SDS011;3785;52.260;4.728;2023-02-15T18:35:53;30.15;;;17.83;;
7487;SDS011;3785;52.260;4.728;2023-02-15T18:39:36;31.65;;;18.20;;
7487;SDS011;3785;52.260;4.728;2023-02-15T18:43:10;33.80;;;18.95;;
7487;SDS011;3785;52.260;4.728;2023-02-15T18:46:32;33.67;;;18.95;;
7487;SDS011;3785;52.260;4.728;2023-02-15T18:49:53;36.72;;;18.70;;
7487;SDS011;3785;52.260;4.728;2023-02-15T18:53:15;32.95;;;17.58;;
7487;SDS011;3785;52.260;4.728;2023-02-15T18:56:37;35.28;;;17.73;;
7487;SDS011;3785;52.260;4.728;2023-02-15T18:59:58;31.58;;;17.35;;
7487;SDS011;3785;52.260;4.728;2023-02-15T19:03:18;30.38;;;17.15;;
7487;SDS011;3785;52.260;4.728;2023-02-15T19:06:40;37.30;;;16.98;;
7487;SDS011;3785;52.260;4.728;2023-02-15T19:10:05;31.85;;;18.17;;
7487;SDS011;3785;52.260;4.728;2023-02-15T19:13:27;30.67;;;18.38;;
7487;SDS011;3785;52.260;4.728;2023-02-15T19:16:47;31.27;;;16.88;;
7487;SDS011;3785;52.260;4.728;2023-02-15T19:20:14;33.13;;;17.50;;
7487;SDS011;3785;52.260;4.728;2023-02-15T19:23:36;32.60;;;17.63;;
7487;SDS011;3785;52.260;4.728;2023-02-15T19:26:56;26.98;;;16.98;;
7487;SDS011;3785;52.260;4.728;2023-02-15T19:30:18;34.85;;;17.95;;
7487;SDS011;3785;52.260;4.728;2023-02-15T19:33:49;33.10;;;18.38;;
7487;SDS011;3785;52.260;4.728;2023-02-15T19:37:21;30.92;;;17.67;;
7487;SDS011;3785;52.260;4.728;2023-02-15T19:40:43;30.13;;;16.83;;
7487;SDS011;3785;52.260;4.728;2023-02-15T19:44:04;34.00;;;17.65;;
7487;SDS011;3785;52.260;4.728;2023-02-15T19:47:26;30.77;;;17.83;;
7487;SDS011;3785;52.260;4.728;2023-02-15T19:50:46;29.10;;;16.55;;
7487;SDS011;3785;52.260;4.728;2023-02-15T19:57:51;33.13;;;17.23;;
7487;SDS011;3785;52.260;4.728;2023-02-15T20:01:12;29.08;;;17.00;;
7487;SDS011;3785;52.260;4.728;2023-02-15T20:04:32;33.08;;;17.60;;
7487;SDS011;3785;52.260;4.728;2023-02-15T20:07:53;33.67;;;16.92;;
7487;SDS011;3785;52.260;4.728;2023-02-15T20:11:14;30.65;;;16.85;;
7487;SDS011;3785;52.260;4.728;2023-02-15T20:14:34;30.85;;;16.33;;
7487;SDS011;3785;52.260;4.728;2023-02-15T20:17:55;27.88;;;17.17;;
7487;SDS011;3785;52.260;4.728;2023-02-15T20:21:17;32.47;;;17.42;;
7487;SDS011;3785;52.260;4.728;2023-02-15T20:24:38;28.88;;;16.30;;
7487;SDS011;3785;52.260;4.728;2023-02-15T20:27:59;30.85;;;18.02;;
7487;SDS011;3785;52.260;4.728;2023-02-15T20:31:20;30.23;;;16.73;;
7487;SDS011;3785;52.260;4.728;2023-02-15T20:34:40;30.95;;;16.40;;
7487;SDS011;3785;52.260;4.728;2023-02-15T20:38:01;30.85;;;16.52;;
7487;SDS011;3785;52.260;4.728;2023-02-15T20:41:23;29.15;;;15.30;;
7487;SDS011;3785;52.260;4.728;2023-02-15T20:44:55;30.30;;;15.93;;
7487;SDS011;3785;52.260;4.728;2023-02-15T20:48:16;31.98;;;16.35;;
7487;SDS011;3785;52.260;4.728;2023-02-15T20:51:36;30.50;;;14.98;;
7487;SDS011;3785;52.260;4.728;2023-02-15T20:54:59;32.70;;;16.25;;
7487;SDS011;3785;52.260;4.728;2023-02-15T21:01:41;32.30;;;16.80;;
7487;SDS011;3785;52.260;4.728;2023-02-15T21:05:04;32.35;;;16.60;;
7487;SDS011;3785;52.260;4.728;2023-02-15T21:08:45;32.15;;;16.73;;
7487;SDS011;3785;52.260;4.728;2023-02-15T21:12:08;28.25;;;15.98;;
7487;SDS011;3785;52.260;4.728;2023-02-15T21:15:33;31.30;;;17.13;;
7487;SDS011;3785;52.260;4.728;2023-02-15T21:19:00;29.73;;;15.80;;
7487;SDS011;3785;52.260;4.728;2023-02-15T21:22:21;30.88;;;15.98;;
7487;SDS011;3785;52.260;4.728;2023-02-15T21:25:42;30.90;;;15.77;;
7487;SDS011;3785;52.260;4.728;2023-02-15T21:29:03;29.88;;;16.42;;
7487;SDS011;3785;52.260;4.728;2023-02-15T21:32:23;27.67;;;15.38;;
7487;SDS011;3785;52.260;4.728;2023-02-15T21:35:48;27.17;;;16.52;;
7487;SDS011;3785;52.260;4.728;2023-02-15T21:42:41;29.45;;;16.45;;
7487;SDS011;3785;52.260;4.728;2023-02-15T21:46:20;26.65;;;15.90;;
7487;SDS011;3785;52.260;4.728;2023-02-15T21:49:59;30.42;;;15.77;;
7487;SDS011;3785;52.260;4.728;2023-02-15T21:53:44;31.77;;;15.80;;
7487;SDS011;3785;52.260;4.728;2023-02-15T21:57:08;28.25;;;15.85;;
7487;SDS011;3785;52.260;4.728;2023-02-15T22:00:33;30.00;;;15.35;;
7487;SDS011;3785;52.260;4.728;2023-02-15T22:03:54;29.52;;;15.80;;
7487;SDS011;3785;52.260;4.728;2023-02-15T22:07:15;28.70;;;15.25;;
7487;SDS011;3785;52.260;4.728;2023-02-15T22:10:39;30.02;;;14.77;;
7487;SDS011;3785;52.260;4.728;2023-02-15T22:14:00;34.25;;;16.50;;
7487;SDS011;3785;52.260;4.728;2023-02-15T22:17:22;27.70;;;15.52;;
7487;SDS011;3785;52.260;4.728;2023-02-15T22:20:47;29.27;;;15.30;;
7487;SDS011;3785;52.260;4.728;2023-02-15T22:24:07;31.23;;;16.15;;
7487;SDS011;3785;52.260;4.728;2023-02-15T22:27:28;35.72;;;16.00;;
7487;SDS011;3785;52.260;4.728;2023-02-15T22:30:51;25.42;;;15.48;;
7487;SDS011;3785;52.260;4.728;2023-02-15T22:37:45;32.42;;;16.73;;
7487;SDS011;3785;52.260;4.728;2023-02-15T22:41:08;32.40;;;15.07;;
7487;SDS011;3785;52.260;4.728;2023-02-15T22:44:31;30.08;;;16.13;;
7487;SDS011;3785;52.260;4.728;2023-02-15T22:47:53;30.85;;;16.75;;
7487;SDS011;3785;52.260;4.728;2023-02-15T22:51:16;30.98;;;15.52;;
7487;SDS011;3785;52.260;4.728;2023-02-15T22:54:41;33.95;;;17.02;;
7487;SDS011;3785;52.260;4.728;2023-02-15T22:58:02;32.17;;;16.90;;
7487;SDS011;3785;52.260;4.728;2023-02-15T23:01:24;31.23;;;16.58;;
7487;SDS011;3785;52.260;4.728;2023-02-15T23:04:48;28.83;;;16.02;;
7487;SDS011;3785;52.260;4.728;2023-02-15T23:08:08;31.00;;;15.57;;
7487;SDS011;3785;52.260;4.728;2023-02-15T23:11:30;33.92;;;16.45;;
7487;SDS011;3785;52.260;4.728;2023-02-15T23:14:51;33.65;;;17.73;;
7487;SDS011;3785;52.260;4.728;2023-02-15T23:18:14;33.83;;;17.08;;
7487;SDS011;3785;52.260;4.728;2023-02-15T23:21:46;32.03;;;17.92;;
7487;SDS011;3785;52.260;4.728;2023-02-15T23:25:07;39.22;;;18.40;;
7487;SDS011;3785;52.260;4.728;2023-02-15T23:28:33;35.53;;;18.25;;
7487;SDS011;3785;52.260;4.728;2023-02-15T23:31:54;31.90;;;17.90;;
7487;SDS011;3785;52.260;4.728;2023-02-15T23:35:17;33.28;;;17.77;;
7487;SDS011;3785;52.260;4.728;2023-02-15T23:38:38;33.75;;;17.50;;
7487;SDS011;3785;52.260;4.728;2023-02-15T23:41:59;31.75;;;17.52;;
7487;SDS011;3785;52.260;4.728;2023-02-15T23:45:21;31.80;;;18.00;;